Time;durP1;ratioP1;P1;durP2;ratioP2;P2;SDS_P1;SDS_P2;PMS_P1;PMS_P2;Temp;Humidity;BMP_temperature;BMP_pressure;BME280_temperature;BME280_humidity;BME280_pressure;Samples;Min_cycle;Max_cycle;Signal;HPM_P1;HPM_P2
2023/08/26 00:01:12;;;;;;;3.42;3.05;;;20.30;99.90;;;;;;5113652;28;20202;-83
2023/08/26 00:03:37;;;;;;;3.80;3.40;;;20.30;99.90;;;;;;5112697;28;20159;-83
2023/08/26 00:06:03;;;;;;;4.30;3.20;;;20.30;99.90;;;;;;5113016;28;20563;-83
2023/08/26 00:08:28;;;;;;;3.28;2.97;;;20.20;99.90;;;;;;5114667;28;20163;-83
2023/08/26 00:10:54;;;;;;;5.07;2.65;;;20.20;99.90;;;;;;5114156;28;20186;-83
2023/08/26 00:13:19;;;;;;;2.85;2.30;;;20.10;99.90;;;;;;5113571;28;20246;-82
2023/08/26 00:15:45;;;;;;;3.95;2.40;;;20.10;99.90;;;;;;5113099;28;20236;-82
2023/08/26 00:18:11;;;;;;;2.45;1.80;;;19.90;99.90;;;;;;5114748;28;20168;-82
2023/08/26 00:20:38;;;;;;;2.75;1.98;;;19.70;99.90;;;;;;5114108;28;20336;-82
2023/08/26 00:23:04;;;;;;;2.35;1.80;;;19.60;99.90;;;;;;5114442;28;20217;-82
2023/08/26 00:25:30;;;;;;;3.72;1.85;;;19.40;99.90;;;;;;5113156;28;20168;-83
2023/08/26 00:27:56;;;;;;;1.92;1.80;;;19.40;99.90;;;;;;5112985;28;20191;-82
2023/08/26 00:30:21;;;;;;;2.20;1.90;;;19.40;99.90;;;;;;5113946;28;20174;-82
2023/08/26 00:32:47;;;;;;;1.92;1.73;;;19.40;99.90;;;;;;5114835;28;20186;-83
2023/08/26 00:35:13;;;;;;;2.17;1.50;;;19.40;99.90;;;;;;5112899;28;20179;-83
2023/08/26 00:37:39;;;;;;;3.35;1.58;;;19.40;99.90;;;;;;5112515;28;20191;-83
2023/08/26 00:40:05;;;;;;;1.55;1.45;;;19.50;99.90;;;;;;5113599;28;20570;-83
2023/08/26 00:42:36;;;;;;;2.05;1.58;;;19.40;99.90;;;;;;5112094;28;20164;-83
2023/08/26 00:45:02;;;;;;;2.75;1.70;;;19.30;99.90;;;;;;5112792;28;20171;-83
2023/08/26 00:47:27;;;;;;;2.72;1.70;;;19.30;99.90;;;;;;5112674;28;20191;-81
2023/08/26 00:49:53;;;;;;;3.47;1.48;;;19.30;99.90;;;;;;5113771;28;20168;-83
2023/08/26 00:52:18;;;;;;;1.80;1.30;;;19.20;99.90;;;;;;5114162;28;20172;-82
2023/08/26 00:54:44;;;;;;;2.30;1.40;;;19.10;99.90;;;;;;5112452;28;20176;-83
2023/08/26 00:57:10;;;;;;;3.03;1.50;;;19.10;99.90;;;;;;5114080;28;20328;-83
2023/08/26 00:59:36;;;;;;;2.33;1.42;;;19.10;99.90;;;;;;5113323;28;20254;-81
2023/08/26 01:02:02;;;;;;;2.10;1.50;;;19.10;99.90;;;;;;5113974;28;20294;-83
2023/08/26 01:04:28;;;;;;;2.85;1.55;;;19.00;99.90;;;;;;5112480;28;20172;-82
2023/08/26 01:06:54;;;;;;;2.67;1.40;;;19.00;99.90;;;;;;5113811;28;20223;-81
2023/08/26 01:09:19;;;;;;;1.85;1.38;;;19.00;99.90;;;;;;5116380;28;20194;-83
2023/08/26 01:12:16;;;;;;;1.40;1.30;;;19.00;99.90;;;;;;5115758;28;20175;-83
2023/08/26 01:14:53;;;;;;;1.85;1.30;;;18.90;99.90;;;;;;5116527;28;20171;-82
2023/08/26 01:17:19;;;;;;;2.25;1.80;;;19.00;99.90;;;;;;5115811;28;20232;-83
2023/08/26 01:19:45;;;;;;;1.58;1.40;;;19.00;99.90;;;;;;5115739;28;20175;-83
2023/08/26 01:22:12;;;;;;;2.45;1.50;;;19.00;99.90;;;;;;5117049;27;20281;-83
2023/08/26 01:24:41;;;;;;;2.42;1.38;;;18.90;99.90;;;;;;5117710;28;20185;-83
2023/08/26 01:27:07;;;;;;;2.58;1.30;;;19.00;99.90;;;;;;5116214;28;20199;-82
2023/08/26 01:29:33;;;;;;;1.48;1.27;;;18.90;99.90;;;;;;5116944;28;20168;-83
2023/08/26 01:32:26;;;;;;;1.85;1.50;;;18.90;99.90;;;;;;5116572;28;20167;-83
2023/08/26 01:34:57;;;;;;;2.50;1.60;;;18.90;99.90;;;;;;5115575;28;20241;-84
2023/08/26 01:37:24;;;;;;;3.13;1.50;;;18.90;99.90;;;;;;5115679;28;20191;-83
2023/08/26 01:39:53;;;;;;;2.83;1.58;;;18.90;99.90;;;;;;5114970;28;20176;-81
2023/08/26 01:42:21;;;;;;;1.88;1.58;;;18.90;99.90;;;;;;5115369;28;20313;-83
2023/08/26 01:44:47;;;;;;;1.63;1.52;;;18.80;99.90;;;;;;5116527;28;20171;-83
2023/08/26 01:47:13;;;;;;;3.75;1.60;;;18.90;99.90;;;;;;5116783;28;20187;-82
2023/08/26 01:49:39;;;;;;;2.20;1.63;;;18.90;99.90;;;;;;5114691;28;20182;-84
2023/08/26 01:52:04;;;;;;;2.03;1.58;;;19.00;99.90;;;;;;5115226;28;20179;-83
2023/08/26 01:54:30;;;;;;;2.05;1.50;;;19.10;99.90;;;;;;5115310;28;20252;-83
2023/08/26 01:56:55;;;;;;;1.70;1.60;;;19.10;99.90;;;;;;5116300;28;20194;-83
2023/08/26 01:59:21;;;;;;;4.13;1.67;;;19.10;99.90;;;;;;5105766;28;20191;-84
2023/08/26 02:01:47;;;;;;;2.35;1.70;;;19.10;99.90;;;;;;5100819;28;20752;-83
2023/08/26 02:04:12;;;;;;;2.58;1.60;;;19.10;99.90;;;;;;5115477;28;20171;-83
2023/08/26 02:06:40;;;;;;;2.35;1.63;;;19.10;99.90;;;;;;5114995;28;20290;-83
2023/08/26 02:09:09;;;;;;;1.70;1.42;;;19.00;99.90;;;;;;5114986;28;20630;-84
2023/08/26 02:11:34;;;;;;;3.65;2.08;;;19.00;99.90;;;;;;5114429;28;20638;-83
2023/08/26 02:14:00;;;;;;;2.00;1.73;;;19.00;99.90;;;;;;5115274;28;20228;-83
2023/08/26 02:16:25;;;;;;;3.05;1.90;;;19.00;99.90;;;;;;5116098;28;20701;-83
2023/08/26 02:18:52;;;;;;;2.13;1.80;;;18.90;99.90;;;;;;5114102;28;20274;-83
2023/08/26 02:21:18;;;;;;;3.92;1.90;;;18.90;99.90;;;;;;5115564;28;20195;-83
2023/08/26 02:23:43;;;;;;;2.60;1.90;;;18.90;99.90;;;;;;5114498;28;20332;-83
2023/08/26 02:26:09;;;;;;;2.92;1.70;;;19.00;99.90;;;;;;5115500;28;20245;-83
2023/08/26 02:28:34;;;;;;;3.13;2.17;;;19.00;99.90;;;;;;5114181;28;20175;-83
2023/08/26 02:31:02;;;;;;;2.10;1.88;;;19.10;99.90;;;;;;5115585;28;20258;-83
2023/08/26 02:33:28;;;;;;;2.83;2.08;;;19.20;99.90;;;;;;5114953;28;20263;-83
2023/08/26 02:35:54;;;;;;;2.67;2.00;;;19.20;99.90;;;;;;5114449;28;20606;-83
2023/08/26 02:38:19;;;;;;;3.97;2.40;;;19.20;99.90;;;;;;5114463;28;20587;-83
2023/08/26 02:40:55;;;;;;;2.47;2.28;;;19.30;99.90;;;;;;5115345;28;20191;-83
2023/08/26 02:43:23;;;;;;;3.00;2.20;;;19.30;99.90;;;;;;5112656;28;20190;-83
2023/08/26 02:45:53;;;;;;;3.33;2.35;;;19.20;99.90;;;;;;5093847;28;20586;-83
2023/08/26 02:48:19;;;;;;;3.10;2.30;;;19.30;99.90;;;;;;5094996;28;20160;-83
2023/08/26 02:50:45;;;;;;;3.38;2.10;;;19.30;99.90;;;;;;5093290;28;20168;-83
2023/08/26 02:53:10;;;;;;;3.47;2.03;;;19.30;99.90;;;;;;5094053;28;20238;-82
2023/08/26 02:55:37;;;;;;;2.85;2.00;;;19.40;99.90;;;;;;5095109;28;20172;-83
2023/08/26 02:58:03;;;;;;;2.15;1.95;;;19.40;99.90;;;;;;5095022;28;20236;-83
2023/08/26 03:00:29;;;;;;;2.28;1.90;;;19.40;99.90;;;;;;5093307;28;20236;-82
2023/08/26 03:02:54;;;;;;;2.05;1.83;;;19.40;99.90;;;;;;5094051;28;20170;-83
2023/08/26 03:05:20;;;;;;;2.42;1.85;;;19.40;99.90;;;;;;5095148;28;20165;-83
2023/08/26 03:07:45;;;;;;;3.35;1.98;;;19.30;99.90;;;;;;5094709;28;20208;-82
2023/08/26 03:10:11;;;;;;;1.83;1.73;;;19.40;99.90;;;;;;5093866;28;20176;-83
2023/08/26 03:12:36;;;;;;;2.75;1.92;;;19.40;99.90;;;;;;5095253;28;20191;-82
2023/08/26 03:15:02;;;;;;;2.05;1.83;;;19.30;99.90;;;;;;5093499;28;20169;-83
2023/08/26 03:17:28;;;;;;;2.53;2.28;;;19.30;99.90;;;;;;5093498;28;20238;-83
2023/08/26 03:19:53;;;;;;;3.40;2.00;;;19.30;99.90;;;;;;5092994;28;20214;-83
2023/08/26 03:22:19;;;;;;;2.33;1.88;;;19.30;99.90;;;;;;5103044;28;20723;-83
2023/08/26 03:24:44;;;;;;;3.45;1.95;;;19.30;99.90;;;;;;5114992;28;20249;-83
2023/08/26 03:27:10;;;;;;;3.10;2.20;;;19.30;99.90;;;;;;5113301;28;20191;-83
2023/08/26 03:29:36;;;;;;;2.63;2.17;;;19.30;99.90;;;;;;5112767;28;20171;-80
2023/08/26 03:32:01;;;;;;;2.70;2.10;;;19.40;99.90;;;;;;5114757;28;20171;-82
2023/08/26 03:34:27;;;;;;;4.07;2.45;;;19.40;99.90;;;;;;5115539;28;20182;-83
2023/08/26 03:36:52;;;;;;;4.15;2.63;;;19.40;99.90;;;;;;5115003;28;20191;-82
2023/08/26 03:39:18;;;;;;;3.45;2.63;;;19.40;99.90;;;;;;5114017;28;20201;-83
2023/08/26 03:41:43;;;;;;;3.45;2.90;;;19.40;99.90;;;;;;5113301;28;20671;-83
2023/08/26 03:44:09;;;;;;;4.47;3.08;;;19.40;99.90;;;;;;5113475;28;20222;-84
2023/08/26 03:46:35;;;;;;;4.50;3.50;;;19.40;99.90;;;;;;5114869;27;20192;-83
2023/08/26 03:49:00;;;;;;;5.07;4.28;;;19.40;99.90;;;;;;5115067;28;20175;-83
2023/08/26 03:51:26;;;;;;;4.82;4.43;;;19.30;99.90;;;;;;5113050;28;20167;-83
2023/08/26 03:53:51;;;;;;;5.20;4.40;;;19.30;99.90;;;;;;5113704;28;20168;-82
2023/08/26 03:56:17;;;;;;;5.70;5.10;;;19.30;99.90;;;;;;5113121;28;20191;-83
2023/08/26 03:58:42;;;;;;;6.13;5.50;;;19.20;99.90;;;;;;5115023;28;20214;-83
2023/08/26 04:01:08;;;;;;;7.10;6.40;;;19.20;99.90;;;;;;5112657;28;20316;-84
2023/08/26 04:03:34;;;;;;;8.27;6.93;;;19.20;99.90;;;;;;5114354;28;20179;-82
2023/08/26 04:06:00;;;;;;;7.85;7.05;;;19.10;99.90;;;;;;5114660;28;20172;-83
2023/08/26 04:08:27;;;;;;;9.15;6.93;;;19.10;99.90;;;;;;5113369;28;20174;-82
2023/08/26 04:10:57;;;;;;;9.77;6.82;;;19.10;99.90;;;;;;5112732;28;20239;-83
2023/08/26 04:13:24;;;;;;;9.32;7.38;;;19.10;99.90;;;;;;5112998;28;20196;-84
2023/08/26 04:15:53;;;;;;;9.32;7.25;;;19.00;99.90;;;;;;5114121;28;20261;-85
2023/08/26 04:18:19;;;;;;;8.95;8.05;;;19.10;99.90;;;;;;5113674;28;20186;-83
2023/08/26 04:20:45;;;;;;;10.15;8.40;;;19.00;99.90;;;;;;5112372;28;20191;-83
2023/08/26 04:23:11;;;;;;;9.82;8.10;;;19.10;99.90;;;;;;5112862;28;20171;-83
2023/08/26 04:25:37;;;;;;;10.45;8.98;;;19.10;99.90;;;;;;5112880;28;20168;-83
2023/08/26 04:28:03;;;;;;;9.30;8.27;;;19.10;99.90;;;;;;5113041;28;20187;-83
2023/08/26 04:30:29;;;;;;;9.73;8.75;;;19.10;99.90;;;;;;5113512;28;20170;-83
2023/08/26 04:32:54;;;;;;;11.23;8.75;;;19.10;99.90;;;;;;5114089;28;20176;-82
2023/08/26 04:35:20;;;;;;;10.20;8.48;;;19.10;99.90;;;;;;5114146;28;20163;-83
2023/08/26 04:37:46;;;;;;;10.80;8.60;;;19.10;99.90;;;;;;5113325;28;20196;-81
2023/08/26 04:40:14;;;;;;;12.30;8.25;;;19.10;99.90;;;;;;5114304;28;20178;-82
2023/08/26 04:42:41;;;;;;;9.45;8.55;;;19.10;99.90;;;;;;5115901;28;20267;-80
2023/08/26 04:45:07;;;;;;;11.63;8.40;;;19.10;99.90;;;;;;5117189;28;20171;-80
2023/08/26 04:47:33;;;;;;;11.07;8.93;;;19.10;99.90;;;;;;5117463;28;20184;-80
2023/08/26 04:49:58;;;;;;;10.25;9.10;;;19.00;99.90;;;;;;5116304;28;20596;-81
2023/08/26 04:52:24;;;;;;;9.38;8.45;;;19.10;99.90;;;;;;5116067;28;20207;-80
2023/08/26 04:54:50;;;;;;;13.02;9.63;;;19.10;99.90;;;;;;5116041;28;20539;-79
2023/08/26 04:57:16;;;;;;;10.40;9.32;;;19.10;99.90;;;;;;5117755;28;20191;-79
2023/08/26 04:59:42;;;;;;;12.07;9.35;;;19.10;99.90;;;;;;5117334;28;20541;-81
2023/08/26 05:02:08;;;;;;;9.73;8.55;;;19.10;99.90;;;;;;5116952;28;20270;-78
2023/08/26 05:04:36;;;;;;;13.30;8.95;;;19.10;99.90;;;;;;5115803;27;20168;-80
2023/08/26 05:07:02;;;;;;;10.23;8.98;;;19.10;99.90;;;;;;5118608;28;20211;-80
2023/08/26 05:09:28;;;;;;;9.35;8.30;;;19.10;99.90;;;;;;5116218;28;20229;-79
2023/08/26 05:11:57;;;;;;;10.35;9.27;;;19.10;99.90;;;;;;5117638;28;20182;-79
2023/08/26 05:14:23;;;;;;;10.18;8.70;;;19.10;99.90;;;;;;5116123;28;20182;-80
2023/08/26 05:16:48;;;;;;;10.48;8.40;;;19.00;99.90;;;;;;5115581;28;20199;-79
2023/08/26 05:19:14;;;;;;;10.55;9.45;;;19.00;99.90;;;;;;5115182;28;20172;-78
2023/08/26 05:21:39;;;;;;;10.00;8.13;;;19.10;99.90;;;;;;5114443;28;20290;-78
2023/08/26 05:24:05;;;;;;;11.32;8.15;;;19.20;99.90;;;;;;5115611;28;20195;-78
2023/08/26 05:26:31;;;;;;;10.23;8.85;;;19.20;99.90;;;;;;5116298;28;20195;-79
2023/08/26 05:28:57;;;;;;;11.13;9.88;;;19.20;99.90;;;;;;5116530;28;20168;-83
2023/08/26 05:31:22;;;;;;;9.90;8.15;;;19.40;99.90;;;;;;5115866;28;20203;-81
2023/08/26 05:33:48;;;;;;;12.40;10.23;;;19.50;99.90;;;;;;5115602;28;20179;-85
2023/08/26 05:36:13;;;;;;;9.63;8.63;;;19.60;99.90;;;;;;5115214;28;20199;-84
2023/08/26 05:38:39;;;;;;;9.40;8.20;;;19.40;99.90;;;;;;5115599;28;20171;-83
2023/08/26 05:41:04;;;;;;;8.55;7.65;;;19.40;99.90;;;;;;5115305;28;20203;-85
2023/08/26 05:43:30;;;;;;;9.85;8.35;;;19.70;99.90;;;;;;5114893;28;20178;-85
2023/08/26 05:45:56;;;;;;;8.80;7.90;;;20.00;99.90;;;;;;5114728;28;20201;-83
2023/08/26 05:48:22;;;;;;;10.65;8.60;;;20.00;99.90;;;;;;5115423;28;20182;-80
2023/08/26 05:50:48;;;;;;;13.32;10.52;;;19.90;99.90;;;;;;5115177;28;20269;-78
2023/08/26 05:53:13;;;;;;;8.70;7.72;;;19.80;99.90;;;;;;5114680;28;20180;-80
2023/08/26 05:55:41;;;;;;;10.30;9.35;;;19.90;99.90;;;;;;5117145;28;20171;-80
2023/08/26 05:58:06;;;;;;;11.13;9.40;;;20.10;99.90;;;;;;5116034;28;20221;-79
2023/08/26 06:00:32;;;;;;;11.10;10.00;;;20.10;99.90;;;;;;5114331;28;20187;-80
2023/08/26 06:02:57;;;;;;;12.48;11.18;;;20.20;99.90;;;;;;5114347;28;20211;-80
2023/08/26 06:05:23;;;;;;;13.27;11.88;;;20.10;99.90;;;;;;5114252;28;20183;-80
2023/08/26 06:07:52;;;;;;;12.18;10.98;;;19.90;99.90;;;;;;5115754;28;20207;-78
2023/08/26 06:10:18;;;;;;;12.05;10.65;;;19.70;99.90;;;;;;5114688;28;20194;-80
2023/08/26 06:12:44;;;;;;;12.18;10.95;;;19.60;99.90;;;;;;5115455;28;20187;-78
2023/08/26 06:15:10;;;;;;;13.13;11.82;;;19.50;99.90;;;;;;5113908;28;20167;-78
2023/08/26 06:17:36;;;;;;;10.90;9.52;;;19.40;99.90;;;;;;5113268;28;20191;-78
2023/08/26 06:20:05;;;;;;;10.95;9.70;;;19.30;99.90;;;;;;5113771;28;20164;-78
2023/08/26 06:22:31;;;;;;;9.65;8.70;;;19.30;99.90;;;;;;5114721;28;20221;-78
2023/08/26 06:24:56;;;;;;;9.80;8.77;;;19.20;99.90;;;;;;5113577;28;20203;-79
2023/08/26 06:27:23;;;;;;;12.57;11.27;;;19.60;99.90;;;;;;5114469;28;20240;-78
2023/08/26 06:29:55;;;;;;;12.27;10.95;;;20.00;99.90;;;;;;5112855;28;20171;-78
2023/08/26 06:32:21;;;;;;;12.02;9.60;;;19.90;99.90;;;;;;5113361;28;20182;-78
2023/08/26 06:34:47;;;;;;;11.13;8.82;;;19.70;99.90;;;;;;5114952;28;20199;-78
2023/08/26 06:37:14;;;;;;;8.00;7.15;;;19.50;99.90;;;;;;5114006;27;20276;-78
2023/08/26 06:39:40;;;;;;;7.32;6.32;;;19.40;99.90;;;;;;5114120;28;20225;-78
2023/08/26 06:42:06;;;;;;;6.60;6.00;;;19.40;99.90;;;;;;5113156;28;20231;-78
2023/08/26 06:44:31;;;;;;;6.95;6.25;;;19.20;99.90;;;;;;5113541;28;20255;-79
2023/08/26 06:46:57;;;;;;;8.30;6.45;;;19.20;99.90;;;;;;5114107;28;20263;-78
2023/08/26 06:49:22;;;;;;;6.28;5.68;;;19.30;99.90;;;;;;5113725;28;20164;-78
2023/08/26 06:51:48;;;;;;;7.90;6.00;;;19.40;99.90;;;;;;5114055;28;20175;-78
2023/08/26 06:54:13;;;;;;;8.95;6.75;;;19.60;99.90;;;;;;5113091;28;20579;-78
2023/08/26 06:56:39;;;;;;;6.03;5.43;;;19.70;99.90;;;;;;5112785;28;20193;-78
2023/08/26 06:59:05;;;;;;;8.25;6.35;;;19.70;99.90;;;;;;5113116;28;20214;-78
2023/08/26 07:01:32;;;;;;;7.82;6.10;;;19.70;99.90;;;;;;5112074;28;20187;-78
2023/08/26 07:04:04;;;;;;;7.15;6.47;;;19.60;99.90;;;;;;5108829;28;20184;-78
2023/08/26 07:06:30;;;;;;;8.07;6.20;;;19.50;1.00;;;;;;5114779;28;20203;-81
2023/08/26 07:08:56;;;;;;;7.85;6.65;;;19.40;99.90;;;;;;5113788;28;20190;-81
2023/08/26 07:11:22;;;;;;;7.32;5.05;;;19.40;99.90;;;;;;5114110;28;20638;-82
2023/08/26 07:13:47;;;;;;;7.72;5.20;;;19.30;99.90;;;;;;5115836;28;20186;-81
2023/08/26 07:16:13;;;;;;;6.32;5.25;;;19.10;99.90;;;;;;5124894;27;20198;-81
2023/08/26 07:18:38;;;;;;;6.00;5.00;;;19.00;99.90;;;;;;5114830;27;20296;-81
2023/08/26 07:21:04;;;;;;;5.97;4.68;;;19.00;99.90;;;;;;5110960;28;20199;-82
2023/08/26 07:23:30;;;;;;;4.43;3.72;;;19.10;99.90;;;;;;5112489;28;20172;-79
2023/08/26 07:25:55;;;;;;;4.95;3.47;;;19.10;1.00;;;;;;5116717;28;20581;-80
2023/08/26 07:28:21;;;;;;;5.50;3.50;;;19.10;1.00;;;;;;5118918;28;20178;-81
2023/08/26 07:30:47;;;;;;;5.43;4.20;;;19.00;1.00;;;;;;5118203;28;20167;-81
2023/08/26 07:33:12;;;;;;;4.23;3.50;;;19.00;1.00;;;;;;5118007;28;20600;-83
2023/08/26 07:35:38;;;;;;;4.33;3.80;;;19.10;56.00;;;;;;5119049;28;20192;-81
2023/08/26 07:38:03;;;;;;;4.67;3.80;;;19.00;1.00;;;;;;5117670;28;20191;-82
2023/08/26 07:40:29;;;;;;;3.90;3.33;;;19.00;53.70;;;;;;5114423;28;20321;-77
2023/08/26 07:42:55;;;;;;;5.10;3.50;;;19.20;16.20;;;;;;5114488;28;20176;-78
2023/08/26 07:45:21;;;;;;;4.00;3.20;;;19.30;1.00;;;;;;5114491;28;20183;-80
2023/08/26 07:47:47;;;;;;;4.40;3.40;;;19.40;1.00;;;;;;5115055;28;20657;-80
2023/08/26 07:50:12;;;;;;;3.83;3.20;;;19.30;1.00;;;;;;5112328;28;20171;-79
2023/08/26 07:52:38;;;;;;;5.73;3.60;;;19.10;1.00;;;;;;5112418;28;20246;-79
2023/08/26 07:55:04;;;;;;;3.70;3.10;;;19.10;1.00;;;;;;5110894;28;20176;-80
2023/08/26 07:57:30;;;;;;;3.67;3.05;;;19.20;1.00;;;;;;5111885;28;20195;-79
2023/08/26 07:59:55;;;;;;;3.40;3.00;;;19.40;1.00;;;;;;5110286;28;20172;-82
2023/08/26 08:02:21;;;;;;;4.97;3.38;;;19.50;1.00;;;;;;5110839;28;20290;-79
2023/08/26 08:04:47;;;;;;;5.13;3.30;;;19.60;1.00;;;;;;5110724;28;20209;-79
2023/08/26 08:07:12;;;;;;;3.50;2.90;;;19.80;1.00;;;;;;5110937;28;20260;-80
2023/08/26 08:09:39;;;;;;;6.35;3.30;;;19.90;99.90;;;;;;5112379;28;20203;-82
2023/08/26 08:12:05;;;;;;;4.70;2.65;;;19.90;99.90;;;;;;5112674;28;20238;-79
2023/08/26 08:14:30;;;;;;;4.32;2.65;;;20.00;99.90;;;;;;5112209;28;20229;-81
2023/08/26 08:16:56;;;;;;;4.80;2.50;;;19.80;99.90;;;;;;5111362;28;20610;-82
2023/08/26 08:19:23;;;;;;;5.32;2.58;;;19.80;1.00;;;;;;5112935;28;20179;-79
2023/08/26 08:21:48;;;;;;;2.88;2.25;;;19.80;1.00;;;;;;5112057;28;20290;-79
2023/08/26 08:24:14;;;;;;;3.35;2.53;;;19.90;99.90;;;;;;5112790;28;20203;-79
2023/08/26 08:26:43;;;;;;;3.55;2.60;;;19.80;1.00;;;;;;5111343;28;20195;-79
2023/08/26 08:29:12;;;;;;;2.45;2.22;;;19.90;99.90;;;;;;5112549;28;20220;-79
2023/08/26 08:31:37;;;;;;;2.60;2.40;;;20.10;99.90;;;;;;5111996;28;20197;-80
2023/08/26 08:34:03;;;;;;;3.13;2.38;;;20.10;1.00;;;;;;5111483;28;20180;-82
2023/08/26 08:36:29;;;;;;;4.38;2.00;;;20.10;99.90;;;;;;5112473;28;20227;-81
2023/08/26 08:38:56;;;;;;;3.17;1.95;;;20.00;99.90;;;;;;5112598;28;20202;-82
2023/08/26 08:41:22;;;;;;;5.30;2.08;;;20.20;99.90;;;;;;5111725;28;20187;-79
2023/08/26 08:43:51;;;;;;;1.65;1.30;;;20.30;1.00;;;;;;5112375;28;20702;-79
2023/08/26 08:46:18;;;;;;;3.33;1.30;;;20.40;29.20;;;;;;5111375;28;20200;-79
2023/08/26 08:48:43;;;;;;;1.42;1.30;;;20.40;1.00;;;;;;5112598;28;20168;-82
2023/08/26 08:51:11;;;;;;;1.98;1.40;;;20.50;99.90;;;;;;5110826;28;20172;-79
2023/08/26 08:53:44;;;;;;;1.65;1.23;;;20.50;99.90;;;;;;5112576;28;20190;-80
2023/08/26 08:56:11;;;;;;;1.52;1.20;;;20.70;1.00;;;;;;5112348;28;20207;-79
2023/08/26 08:58:39;;;;;;;1.90;1.50;;;20.60;99.90;;;;;;5111158;28;20198;-79
2023/08/26 09:01:04;;;;;;;2.03;1.35;;;20.70;1.00;;;;;;5110837;28;20196;-81
2023/08/26 09:03:30;;;;;;;1.75;1.30;;;20.70;1.00;;;;;;5111331;28;20174;-81
2023/08/26 09:05:56;;;;;;;1.20;1.10;;;20.60;1.00;;;;;;5111110;28;20172;-82
2023/08/26 09:08:24;;;;;;;2.17;1.38;;;20.60;1.00;;;;;;5111155;28;20172;-80
2023/08/26 09:10:51;;;;;;;2.97;1.48;;;20.70;1.00;;;;;;5112009;28;20196;-79
2023/08/26 09:13:16;;;;;;;1.48;1.20;;;20.90;1.00;;;;;;5112130;28;20191;-79
2023/08/26 09:15:42;;;;;;;4.85;1.30;;;20.90;99.90;;;;;;5111177;28;20171;-79
2023/08/26 09:18:12;;;;;;;1.52;1.30;;;21.00;1.00;;;;;;5112264;28;20184;-79
2023/08/26 09:20:41;;;;;;;2.38;1.70;;;21.00;99.90;;;;;;5111618;28;20199;-79
2023/08/26 09:23:08;;;;;;;3.22;1.50;;;21.00;1.00;;;;;;5111098;28;20245;-79
2023/08/26 09:25:35;;;;;;;2.58;1.38;;;21.10;99.90;;;;;;5112245;28;20183;-80
2023/08/26 09:28:01;;;;;;;2.05;1.23;;;21.30;1.00;;;;;;5114288;28;20199;-79
2023/08/26 09:30:27;;;;;;;1.75;1.30;;;21.40;99.90;;;;;;5115240;28;20167;-80
2023/08/26 09:32:53;;;;;;;1.63;1.40;;;21.40;99.90;;;;;;5115020;28;20168;-78
2023/08/26 09:35:19;;;;;;;2.28;1.48;;;21.60;84.10;;;;;;5115808;28;20171;-77
2023/08/26 09:37:47;;;;;;;3.05;1.40;;;21.60;99.90;;;;;;5117657;28;20275;-78
2023/08/26 09:40:14;;;;;;;1.52;1.42;;;21.70;1.00;;;;;;5116271;28;20172;-78
2023/08/26 09:42:40;;;;;;;1.63;1.20;;;21.80;1.00;;;;;;5115635;28;20172;-79
2023/08/26 09:45:10;;;;;;;1.33;1.20;;;21.90;1.00;;;;;;5114951;28;20167;-80
2023/08/26 09:47:37;;;;;;;1.70;1.20;;;21.80;1.00;;;;;;5115079;28;20685;-82
2023/08/26 09:50:04;;;;;;;1.90;1.30;;;21.70;1.00;;;;;;5113451;28;20251;-79
2023/08/26 09:52:30;;;;;;;2.58;1.40;;;21.70;1.00;;;;;;5114023;28;20179;-79
2023/08/26 09:54:58;;;;;;;1.88;1.20;;;21.90;1.00;;;;;;5116023;28;20168;-78
2023/08/26 09:57:24;;;;;;;1.80;1.20;;;21.50;1.00;;;;;;5115670;28;20210;-79
2023/08/26 09:59:51;;;;;;;1.38;1.20;;;21.50;1.00;;;;;;5113799;28;20680;-79
2023/08/26 10:02:23;;;;;;;1.58;1.20;;;21.50;99.90;;;;;;5115625;28;20204;-80
2023/08/26 10:04:55;;;;;;;3.45;1.20;;;21.50;1.00;;;;;;5113847;28;20175;-82
2023/08/26 10:07:22;;;;;;;1.98;1.10;;;21.80;1.00;;;;;;5114075;28;20207;-79
2023/08/26 10:10:20;;;;;;;2.33;1.30;;;22.10;99.90;;;;;;5113494;28;20521;-79
2023/08/26 10:12:49;;;;;;;1.23;1.13;;;22.40;1.00;;;;;;5072712;28;20187;-79
2023/08/26 10:15:19;;;;;;;3.28;1.02;;;22.40;1.00;;;;;;5115941;28;20190;-81
2023/08/26 10:17:48;;;;;;;2.58;1.30;;;22.50;1.00;;;;;;5113841;28;20543;-79
2023/08/26 10:20:14;;;;;;;1.92;1.00;;;22.30;1.00;;;;;;5113361;28;20648;-79
2023/08/26 10:22:40;;;;;;;2.63;1.20;;;22.50;99.90;;;;;;5113683;28;20168;-79
2023/08/26 10:25:08;;;;;;;1.20;0.90;;;22.40;23.20;;;;;;5113766;28;20296;-81
2023/08/26 10:27:36;;;;;;;1.92;0.90;;;22.20;99.90;;;;;;5114838;28;20195;-82
2023/08/26 10:30:03;;;;;;;1.65;1.08;;;21.90;99.90;;;;;;5112860;28;20201;-79
2023/08/26 10:32:29;;;;;;;1.38;1.00;;;22.00;99.90;;;;;;5116732;28;20549;-79
2023/08/26 10:34:56;;;;;;;1.25;1.15;;;21.90;1.00;;;;;;5116486;28;20188;-79
2023/08/26 10:37:31;;;;;;;1.70;1.10;;;21.90;1.00;;;;;;5113548;28;20261;-79
2023/08/26 10:40:03;;;;;;;2.85;1.00;;;21.90;99.90;;;;;;5113821;28;20175;-80
2023/08/26 10:42:29;;;;;;;2.67;1.10;;;21.80;99.90;;;;;;5114588;28;20586;-79
2023/08/26 10:44:56;;;;;;;1.33;1.00;;;21.90;1.00;;;;;;5114562;28;20164;-80
2023/08/26 10:47:39;;;;;;;1.27;0.90;;;22.00;1.00;;;;;;5114552;28;20187;-79
2023/08/26 10:50:21;;;;;;;1.90;1.30;;;21.90;1.00;;;;;;5113963;28;20164;-79
2023/08/26 10:52:58;;;;;;;1.50;1.00;;;22.10;1.00;;;;;;5113230;28;20250;-79
2023/08/26 10:55:27;;;;;;;1.30;1.20;;;22.10;1.00;;;;;;5113274;28;20286;-80
2023/08/26 10:58:14;;;;;;;1.58;1.20;;;22.10;1.00;;;;;;5113141;28;20233;-81
2023/08/26 11:00:41;;;;;;;1.70;1.10;;;22.20;99.90;;;;;;5113805;28;20195;-80
2023/08/26 11:03:08;;;;;;;2.35;0.93;;;22.10;99.90;;;;;;5113157;28;20171;-81
2023/08/26 11:05:36;;;;;;;1.40;0.90;;;22.40;1.00;;;;;;5112891;28;20164;-79
2023/08/26 11:08:03;;;;;;;1.60;1.00;;;22.50;99.90;;;;;;5113725;28;20227;-79
2023/08/26 11:10:39;;;;;;;1.60;1.08;;;22.60;99.90;;;;;;5113533;28;20171;-79
2023/08/26 11:13:05;;;;;;;1.77;1.05;;;22.50;99.90;;;;;;5114031;28;20175;-79
2023/08/26 11:15:42;;;;;;;1.33;1.02;;;22.70;1.00;;;;;;5113483;28;20171;-80
2023/08/26 11:18:09;;;;;;;1.30;1.00;;;22.80;99.90;;;;;;5113500;28;20205;-80
2023/08/26 11:20:35;;;;;;;2.10;1.10;;;22.90;99.90;;;;;;5113738;28;20163;-80
2023/08/26 11:23:05;;;;;;;1.15;1.00;;;23.00;97.80;;;;;;5113410;28;20167;-80
2023/08/26 11:25:32;;;;;;;2.33;1.10;;;23.00;1.00;;;;;;5114475;28;20220;-80
2023/08/26 11:28:07;;;;;;;1.45;1.08;;;23.00;1.00;;;;;;5111818;28;20669;-79
2023/08/26 11:30:39;;;;;;;1.42;1.08;;;22.70;1.00;;;;;;5112376;28;20291;-80
2023/08/26 11:33:17;;;;;;;1.25;1.05;;;22.70;45.90;;;;;;5114641;28;20163;-80
2023/08/26 11:35:47;;;;;;;2.55;0.90;;;22.70;99.50;;;;;;5113224;28;20167;-80
2023/08/26 11:38:17;;;;;;;1.20;1.10;;;22.60;53.40;;;;;;5113660;28;20171;-80
2023/08/26 11:40:45;;;;;;;1.38;1.08;;;22.70;99.90;;;;;;5112359;28;20721;-80
2023/08/26 11:43:12;;;;;;;1.80;1.08;;;22.80;99.90;;;;;;5113654;28;20179;-80
2023/08/26 11:45:45;;;;;;;2.03;1.20;;;23.20;24.30;;;;;;5114413;28;20164;-80
2023/08/26 11:48:12;;;;;;;1.30;1.10;;;23.30;17.10;;;;;;5113296;28;20172;-81
2023/08/26 11:50:38;;;;;;;1.88;1.00;;;23.40;26.70;;;;;;5113086;28;20536;-81
2023/08/26 11:53:04;;;;;;;1.75;1.20;;;23.30;25.90;;;;;;5113031;28;20669;-80
2023/08/26 11:55:32;;;;;;;2.55;1.17;;;23.10;99.90;;;;;;5113730;28;20191;-81
2023/08/26 11:57:59;;;;;;;1.20;1.10;;;23.20;99.90;;;;;;5113802;28;20268;-80
2023/08/26 12:00:25;;;;;;;1.20;1.10;;;23.20;99.90;;;;;;5113676;28;20227;-80
2023/08/26 12:02:52;;;;;;;1.15;1.05;;;23.10;1.00;;;;;;5114370;28;20246;-80
2023/08/26 12:05:19;;;;;;;1.83;1.23;;;23.20;99.90;;;;;;5113644;28;20182;-81
2023/08/26 12:07:46;;;;;;;2.10;1.10;;;23.00;99.90;;;;;;5113628;28;20203;-82
2023/08/26 12:10:19;;;;;;;1.65;1.10;;;23.00;99.90;;;;;;5112429;28;20175;-83
2023/08/26 12:12:46;;;;;;;2.45;1.17;;;22.80;99.90;;;;;;5114537;28;20240;-83
2023/08/26 12:15:14;;;;;;;1.75;1.13;;;22.60;99.90;;;;;;5112943;28;20174;-83
2023/08/26 12:17:45;;;;;;;1.17;0.98;;;22.70;99.90;;;;;;5114202;28;20190;-83
2023/08/26 12:20:21;;;;;;;2.55;1.17;;;22.70;99.90;;;;;;5111658;28;20172;-82
2023/08/26 12:22:51;;;;;;;1.65;1.10;;;22.60;1.00;;;;;;5112390;28;20175;-82
2023/08/26 12:25:22;;;;;;;1.42;1.10;;;22.50;1.00;;;;;;5113830;28;20199;-83
2023/08/26 12:27:48;;;;;;;1.20;1.05;;;22.50;99.90;;;;;;5114317;28;20270;-83
2023/08/26 12:30:13;;;;;;;4.13;1.20;;;22.70;1.00;;;;;;5113491;28;20582;-82
2023/08/26 12:32:39;;;;;;;1.45;1.00;;;22.80;99.90;;;;;;5114243;28;20183;-83
2023/08/26 12:35:05;;;;;;;1.80;1.13;;;22.70;51.10;;;;;;5112696;28;20175;-83
2023/08/26 12:37:31;;;;;;;2.45;1.20;;;22.70;99.90;;;;;;5113775;28;20572;-82
2023/08/26 12:39:57;;;;;;;2.03;1.27;;;22.70;99.90;;;;;;5112687;28;20178;-80
2023/08/26 12:42:22;;;;;;;1.35;1.20;;;22.60;99.90;;;;;;5113048;28;20192;-82
2023/08/26 12:44:48;;;;;;;1.77;1.00;;;22.60;99.90;;;;;;5112729;28;20175;-83
2023/08/26 12:47:14;;;;;;;1.88;1.20;;;22.60;99.90;;;;;;5113083;28;20187;-82